Terminal Aerodrome Forecast
Issued by NWS Cleveland, OH

Home | Current Version | Previous Version | Text Only | Print | Product List | Glossary On
Versions: 1 2 3 4 5 6 7 8 9 10 11 12 13 14 15 16 17 18 19 20 21 22 23
000
FTUS41 KCLE 012300 CCA
TAFERI
TAF COR
KERI 012346Z 0200/0224 05012G18KT 1SM -SN OVC012
     FM020500 08018G28KT 3/4SM -SN OVC008
     FM021600 35015G25KT 1 1/2SM BLSN OVC008
     FM022000 32012G22KT 4SM -SHSN BLSN OVC010=

USA.gov is the U.S. government's official web portal to all federal, state and local government web resources and services.